Time;durP1;ratioP1;P1;durP2;ratioP2;P2;SDS_P1;SDS_P2;PMS_P1;PMS_P2;Temp;Humidity;BMP_temperature;BMP_pressure;BME280_temperature;BME280_humidity;BME280_pressure;Samples;Min_cycle;Max_cycle;Signal;HPM_P1;HPM_P2
2021/06/13 00:00:34;;;;;;;8.67;3.30;;;16.00;84.70;;;;;;5031153;28;20566;-51
2021/06/13 00:03:00;;;;;;;7.03;3.50;;;16.00;84.70;;;;;;5031077;28;20534;-50
2021/06/13 00:05:27;;;;;;;7.30;3.67;;;15.90;84.30;;;;;;5030886;28;20457;-51
2021/06/13 00:07:53;;;;;;;12.00;3.60;;;15.80;84.10;;;;;;5031058;28;20482;-49
2021/06/13 00:10:20;;;;;;;5.67;3.40;;;15.80;84.00;;;;;;5030794;28;20522;-50
2021/06/13 00:12:48;;;;;;;6.50;3.80;;;15.80;83.70;;;;;;5030223;28;20432;-50
2021/06/13 00:15:18;;;;;;;11.20;3.43;;;16.30;84.30;;;;;;5030979;28;20447;-51
2021/06/13 00:17:44;;;;;;;5.93;3.70;;;15.80;83.70;;;;;;5030867;28;20431;-51
2021/06/13 00:20:13;;;;;;;7.00;3.20;;;15.70;83.60;;;;;;5029013;28;20458;-50
2021/06/13 00:22:39;;;;;;;6.57;3.03;;;15.70;83.50;;;;;;5030945;28;20470;-50
2021/06/13 00:25:08;;;;;;;13.83;3.43;;;15.80;83.90;;;;;;5030776;28;21125;-50
2021/06/13 00:27:34;;;;;;;7.47;3.60;;;15.50;83.50;;;;;;5030610;28;21017;-51
2021/06/13 00:30:04;;;;;;;12.63;3.70;;;15.60;83.30;;;;;;5030981;28;20434;-49
2021/06/13 00:32:30;;;;;;;9.60;3.60;;;15.50;83.20;;;;;;5030742;28;20443;-51
2021/06/13 00:34:57;;;;;;;7.00;3.63;;;15.50;83.10;;;;;;5030600;28;20451;-51
2021/06/13 00:37:23;;;;;;;7.63;4.17;;;15.50;82.90;;;;;;5030626;28;20928;-51
2021/06/13 00:39:49;;;;;;;7.77;3.53;;;15.70;82.90;;;;;;5030378;28;20507;-50
2021/06/13 00:42:18;;;;;;;8.20;3.97;;;15.30;82.40;;;;;;5030780;28;20450;-51
2021/06/13 00:44:44;;;;;;;8.43;3.43;;;15.40;81.90;;;;;;5030525;28;20793;-50
2021/06/13 00:47:12;;;;;;;7.70;3.30;;;15.40;81.80;;;;;;5029330;28;20477;-50
2021/06/13 00:49:38;;;;;;;6.20;3.53;;;15.30;81.30;;;;;;5030159;28;20976;-50
2021/06/13 00:52:06;;;;;;;9.13;3.90;;;15.40;81.20;;;;;;5030622;28;20945;-50
2021/06/13 00:54:33;;;;;;;5.33;3.00;;;15.50;81.30;;;;;;5028959;28;20600;-49
2021/06/13 00:56:59;;;;;;;8.80;3.53;;;15.30;80.60;;;;;;5030468;28;20441;-50
2021/06/13 00:59:25;;;;;;;6.80;3.10;;;15.20;80.30;;;;;;5030232;28;20526;-49
2021/06/13 01:01:51;;;;;;;5.83;3.00;;;15.30;80.30;;;;;;5029024;28;20458;-50
2021/06/13 01:04:19;;;;;;;7.07;3.50;;;15.20;80.00;;;;;;5029644;28;20458;-50
2021/06/13 01:06:54;;;;;;;7.17;3.37;;;15.20;79.80;;;;;;5030857;28;20538;-49
2021/06/13 01:09:25;;;;;;;10.13;2.90;;;15.20;79.80;;;;;;5029308;28;20461;-49
2021/06/13 01:11:56;;;;;;;6.90;3.53;;;15.10;79.60;;;;;;5030976;28;20430;-51
2021/06/13 01:15:00;;;;;;;8.80;2.80;;;15.10;79.50;;;;;;5029510;28;20464;-50
2021/06/13 01:17:31;;;;;;;7.10;3.60;;;15.10;79.50;;;;;;5030927;28;20434;-49
2021/06/13 01:20:12;;;;;;;5.33;3.20;;;15.20;79.50;;;;;;5029142;28;20454;-49
2021/06/13 01:22:54;;;;;;;7.27;3.27;;;15.20;79.30;;;;;;5031303;28;20513;-50
2021/06/13 01:25:34;;;;;;;4.37;3.20;;;15.00;79.00;;;;;;5033321;28;20492;-51
2021/06/13 01:28:22;;;;;;;9.20;3.53;;;14.90;79.10;;;;;;5033209;28;21010;-50
2021/06/13 01:30:52;;;;;;;7.67;3.10;;;15.00;79.30;;;;;;5033132;28;21129;-50
2021/06/13 01:33:20;;;;;;;6.27;3.17;;;14.90;79.30;;;;;;5034633;28;20439;-49
2021/06/13 01:35:49;;;;;;;5.70;2.83;;;14.90;79.40;;;;;;5033166;28;20474;-49
2021/06/13 01:38:18;;;;;;;8.80;4.70;;;14.60;79.00;;;;;;5032898;28;20888;-51
2021/06/13 01:40:47;;;;;;;8.10;3.63;;;14.90;79.60;;;;;;5033285;28;20476;-50
2021/06/13 01:43:15;;;;;;;6.97;3.63;;;14.80;79.70;;;;;;5033206;28;20445;-49
2021/06/13 01:45:43;;;;;;;7.80;3.20;;;14.90;80.90;;;;;;5033359;28;20477;-49
2021/06/13 01:48:15;;;;;;;7.77;2.90;;;14.70;80.20;;;;;;5032342;28;20477;-51
2021/06/13 01:50:43;;;;;;;7.97;4.00;;;14.80;80.80;;;;;;5034279;28;20809;-50
2021/06/13 01:53:14;;;;;;;7.60;3.00;;;14.80;82.10;;;;;;5034010;28;20430;-52
2021/06/13 01:55:41;;;;;;;6.17;2.80;;;14.80;81.80;;;;;;5034215;28;21055;-50
2021/06/13 01:58:08;;;;;;;5.67;3.30;;;14.90;81.80;;;;;;5032373;28;21106;-50
2021/06/13 02:00:46;;;;;;;6.77;3.40;;;14.70;82.00;;;;;;5032782;28;20447;-52
2021/06/13 02:03:19;;;;;;;9.90;3.93;;;14.80;82.20;;;;;;5032566;28;20454;-50
2021/06/13 02:05:53;;;;;;;9.67;3.80;;;15.20;82.70;;;;;;5034133;28;20919;-50
2021/06/13 02:08:23;;;;;;;8.90;2.90;;;14.80;82.40;;;;;;5033303;28;20534;-51
2021/06/13 02:10:58;;;;;;;10.00;3.40;;;14.80;82.40;;;;;;5032475;28;20969;-50
2021/06/13 02:13:25;;;;;;;7.30;3.00;;;14.80;82.40;;;;;;5032615;28;20449;-49
2021/06/13 02:15:57;;;;;;;9.93;3.70;;;15.00;82.50;;;;;;5032498;28;20495;-50
2021/06/13 02:18:27;;;;;;;7.57;3.70;;;14.80;82.60;;;;;;5031850;28;20446;-50
2021/06/13 02:20:58;;;;;;;6.83;3.50;;;14.90;82.90;;;;;;5032329;28;20462;-51
2021/06/13 02:23:25;;;;;;;9.37;3.93;;;14.80;83.20;;;;;;5032293;28;20456;-51
2021/06/13 02:25:54;;;;;;;8.93;3.57;;;14.70;82.80;;;;;;5033678;28;20507;-51
2021/06/13 02:28:21;;;;;;;6.57;3.40;;;14.70;82.80;;;;;;5031770;28;20568;-50
2021/06/13 02:30:49;;;;;;;12.77;3.73;;;14.70;82.70;;;;;;5033378;28;20439;-49
2021/06/13 02:33:17;;;;;;;5.37;3.70;;;14.60;82.90;;;;;;5033481;28;20458;-50
2021/06/13 02:35:49;;;;;;;8.57;3.80;;;14.60;82.90;;;;;;5032389;28;20960;-49
2021/06/13 02:38:18;;;;;;;7.33;3.20;;;14.50;83.10;;;;;;5031843;28;20441;-51
2021/06/13 02:40:46;;;;;;;14.37;3.40;;;14.50;83.30;;;;;;5032003;28;20829;-50
2021/06/13 02:43:13;;;;;;;8.87;3.20;;;14.50;83.20;;;;;;5032027;28;20534;-50
2021/06/13 02:45:44;;;;;;;8.53;3.67;;;14.50;83.30;;;;;;5031810;28;20981;-51
2021/06/13 02:48:11;;;;;;;7.30;2.80;;;14.50;83.40;;;;;;5031426;28;20482;-50
2021/06/13 02:50:38;;;;;;;7.80;3.50;;;14.30;83.10;;;;;;5033151;28;21014;-51
2021/06/13 02:53:14;;;;;;;7.20;3.33;;;14.90;83.90;;;;;;5031607;28;20459;-50
2021/06/13 02:55:47;;;;;;;11.57;3.43;;;14.40;83.70;;;;;;5031633;28;21011;-51
2021/06/13 02:58:26;;;;;;;8.90;3.27;;;14.80;84.60;;;;;;5032172;28;20485;-52
2021/06/13 03:00:56;;;;;;;6.70;3.63;;;14.40;84.50;;;;;;5031563;28;20424;-51
2021/06/13 03:03:23;;;;;;;8.20;4.07;;;14.50;84.80;;;;;;5032965;28;20805;-51
2021/06/13 03:05:51;;;;;;;6.93;3.00;;;14.30;84.70;;;;;;5032842;28;21040;-51
2021/06/13 03:08:20;;;;;;;6.87;3.30;;;14.30;85.00;;;;;;5032379;28;20470;-51
2021/06/13 03:10:51;;;;;;;8.77;3.03;;;14.30;85.10;;;;;;5032821;28;20423;-50
2021/06/13 03:13:19;;;;;;;7.67;3.40;;;14.20;85.30;;;;;;5031479;28;20492;-52
2021/06/13 03:15:47;;;;;;;7.43;3.70;;;14.20;85.50;;;;;;5032805;28;20957;-50
2021/06/13 03:18:15;;;;;;;9.90;3.20;;;14.30;85.90;;;;;;5030983;28;20538;-49
2021/06/13 03:20:42;;;;;;;7.10;3.30;;;14.20;86.10;;;;;;5032681;28;20435;-50
2021/06/13 03:23:09;;;;;;;8.10;3.30;;;14.20;86.10;;;;;;5031123;28;20465;-52
2021/06/13 03:25:37;;;;;;;8.97;3.80;;;14.20;86.10;;;;;;5030999;28;20488;-50
2021/06/13 03:28:05;;;;;;;6.00;3.20;;;14.20;86.20;;;;;;5030832;28;20550;-50
2021/06/13 03:30:31;;;;;;;8.90;3.13;;;14.30;86.50;;;;;;5030995;28;21012;-50
2021/06/13 03:33:03;;;;;;;6.33;3.10;;;13.70;86.00;;;;;;5030998;28;20965;-51
2021/06/13 03:35:33;;;;;;;8.63;4.00;;;14.20;86.70;;;;;;5030768;28;20554;-52
2021/06/13 03:38:01;;;;;;;9.23;3.97;;;13.90;86.70;;;;;;5030540;28;20606;-50
2021/06/13 03:40:30;;;;;;;9.67;3.83;;;14.20;87.20;;;;;;5030725;28;20456;-51
2021/06/13 03:43:00;;;;;;;8.43;3.07;;;14.50;87.70;;;;;;5030800;28;20465;-50
2021/06/13 03:45:27;;;;;;;10.90;3.63;;;14.30;87.60;;;;;;5031805;28;20477;-50
2021/06/13 03:47:57;;;;;;;5.87;3.50;;;14.20;88.00;;;;;;5032034;28;20464;-50
2021/06/13 03:50:24;;;;;;;11.33;3.37;;;14.20;87.90;;;;;;5031743;28;20461;-51
2021/06/13 03:52:50;;;;;;;8.93;3.50;;;14.20;87.80;;;;;;5030708;28;20451;-50
2021/06/13 03:55:17;;;;;;;13.47;4.13;;;14.30;88.10;;;;;;5031771;28;20580;-52
2021/06/13 03:57:48;;;;;;;8.03;3.60;;;14.40;88.10;;;;;;5031730;28;20445;-51
2021/06/13 04:00:18;;;;;;;7.23;3.47;;;14.50;88.40;;;;;;5031433;28;20433;-51
2021/06/13 04:02:48;;;;;;;11.07;3.67;;;14.40;88.20;;;;;;5031593;28;20520;-51
2021/06/13 04:05:20;;;;;;;8.83;4.07;;;14.50;88.20;;;;;;5030268;28;20498;-51
2021/06/13 04:07:47;;;;;;;6.07;3.00;;;14.50;88.50;;;;;;5031767;28;20844;-50
2021/06/13 04:10:14;;;;;;;9.63;3.70;;;14.60;88.30;;;;;;5031382;28;20428;-51
2021/06/13 04:12:42;;;;;;;11.43;3.73;;;14.60;88.30;;;;;;5031547;28;20433;-50
2021/06/13 04:15:09;;;;;;;16.57;3.90;;;14.80;88.50;;;;;;5031549;28;20471;-50
2021/06/13 04:17:39;;;;;;;7.67;3.57;;;15.00;88.60;;;;;;5031536;28;20528;-51
2021/06/13 04:20:08;;;;;;;10.43;3.73;;;14.70;88.20;;;;;;5031266;28;20946;-51
2021/06/13 04:22:38;;;;;;;9.70;3.00;;;14.80;88.10;;;;;;5031540;28;20445;-51
2021/06/13 04:25:07;;;;;;;20.50;4.60;;;14.80;88.20;;;;;;5030116;28;20472;-51
2021/06/13 04:27:36;;;;;;;6.80;3.03;;;14.80;88.00;;;;;;5031539;28;20476;-52
2021/06/13 04:30:05;;;;;;;7.40;3.30;;;14.90;87.90;;;;;;5031023;28;20404;-50
2021/06/13 04:32:32;;;;;;;10.07;4.23;;;14.90;87.60;;;;;;5031305;28;20448;-52
2021/06/13 04:35:00;;;;;;;8.33;3.93;;;14.90;87.60;;;;;;5031503;28;20458;-51
2021/06/13 04:37:27;;;;;;;8.40;3.23;;;15.00;87.50;;;;;;5031405;28;20453;-50
2021/06/13 04:39:54;;;;;;;7.40;3.20;;;15.00;87.50;;;;;;5031041;28;20433;-50
2021/06/13 04:42:21;;;;;;;14.90;4.73;;;15.00;87.30;;;;;;5031167;28;20445;-52
2021/06/13 04:44:48;;;;;;;8.67;3.67;;;15.00;87.10;;;;;;5031048;28;20810;-50
2021/06/13 04:47:15;;;;;;;12.27;3.33;;;15.50;87.60;;;;;;5031021;28;20444;-50
2021/06/13 04:49:43;;;;;;;14.73;4.30;;;15.00;87.20;;;;;;5030816;28;20460;-51
2021/06/13 04:52:14;;;;;;;10.63;3.40;;;15.00;87.10;;;;;;5031185;28;20445;-49
2021/06/13 04:54:52;;;;;;;11.57;4.13;;;15.00;87.20;;;;;;5049342;22;20498;-50
2021/06/13 04:57:37;;;;;;;6.97;2.87;;;15.00;87.20;;;;;;5050607;28;20449;-50
2021/06/13 05:00:05;;;;;;;9.97;3.23;;;15.00;87.40;;;;;;5050856;28;20797;-50
2021/06/13 05:02:33;;;;;;;7.30;3.07;;;15.00;87.30;;;;;;5051097;28;20798;-50
2021/06/13 05:05:00;;;;;;;7.33;2.73;;;15.00;87.50;;;;;;5051113;28;21020;-50
2021/06/13 05:07:28;;;;;;;13.47;3.63;;;15.10;87.50;;;;;;5051022;28;20433;-49
2021/06/13 05:09:55;;;;;;;6.23;3.00;;;14.90;87.20;;;;;;5050688;28;20801;-49
2021/06/13 05:12:21;;;;;;;8.40;3.00;;;15.10;87.30;;;;;;5051120;28;20770;-50
2021/06/13 05:14:48;;;;;;;9.43;3.07;;;15.10;87.30;;;;;;5050845;28;20985;-50
2021/06/13 05:17:14;;;;;;;7.30;3.27;;;15.10;87.20;;;;;;5051019;28;20463;-50
2021/06/13 05:19:41;;;;;;;9.83;3.20;;;15.10;87.40;;;;;;5050473;28;20435;-50
2021/06/13 05:22:09;;;;;;;12.70;4.23;;;15.10;87.20;;;;;;5050860;28;20435;-50
2021/06/13 05:24:37;;;;;;;5.80;2.93;;;15.00;87.10;;;;;;5050596;28;20452;-50
2021/06/13 05:27:05;;;;;;;6.27;2.90;;;15.10;87.30;;;;;;5050827;28;20436;-47
2021/06/13 05:29:31;;;;;;;8.00;3.00;;;15.30;87.70;;;;;;5050432;28;20478;-48
2021/06/13 05:31:58;;;;;;;10.60;3.50;;;14.70;87.00;;;;;;5050596;28;20528;-49
2021/06/13 05:34:25;;;;;;;12.80;4.00;;;14.90;87.10;;;;;;5050509;28;20454;-48
2021/06/13 05:36:51;;;;;;;9.30;4.07;;;15.10;87.30;;;;;;5050668;28;20462;-48
2021/06/13 05:39:18;;;;;;;7.57;3.60;;;15.20;87.30;;;;;;5050938;28;20438;-50
2021/06/13 05:41:46;;;;;;;7.73;3.70;;;15.30;87.30;;;;;;5051095;28;20815;-48
2021/06/13 05:44:13;;;;;;;7.57;2.80;;;15.40;87.30;;;;;;5050852;28;20437;-49
2021/06/13 05:46:39;;;;;;;11.40;3.50;;;15.30;86.90;;;;;;5050711;28;20809;-49
2021/06/13 05:49:06;;;;;;;8.93;3.50;;;15.40;87.00;;;;;;5050236;28;20978;-49
2021/06/13 05:51:33;;;;;;;7.77;2.93;;;15.30;86.80;;;;;;5049234;28;20455;-49
2021/06/13 05:53:59;;;;;;;20.73;4.33;;;15.40;86.90;;;;;;5050566;28;21175;-49
2021/06/13 05:56:26;;;;;;;7.20;3.00;;;15.40;86.80;;;;;;5050363;28;20511;-49
2021/06/13 05:58:54;;;;;;;8.67;3.70;;;15.50;86.70;;;;;;5050541;28;20502;-49
2021/06/13 06:01:20;;;;;;;8.60;3.77;;;15.50;86.60;;;;;;5050638;28;20437;-50
2021/06/13 06:03:47;;;;;;;8.70;3.53;;;15.20;86.30;;;;;;5049329;28;20454;-49
2021/06/13 06:06:14;;;;;;;7.63;3.50;;;15.60;86.70;;;;;;5050248;28;20452;-49
2021/06/13 06:08:40;;;;;;;7.57;3.60;;;15.70;86.80;;;;;;5049940;28;20478;-49
2021/06/13 06:11:08;;;;;;;13.47;3.80;;;15.50;86.70;;;;;;5052794;28;20434;-49
2021/06/13 06:13:35;;;;;;;10.20;3.40;;;15.50;86.60;;;;;;5053888;28;20449;-49
2021/06/13 06:16:03;;;;;;;9.97;3.43;;;15.50;86.50;;;;;;5053721;28;21017;-49
2021/06/13 06:18:30;;;;;;;8.90;3.37;;;15.80;86.60;;;;;;5053628;28;20419;-48
2021/06/13 06:20:57;;;;;;;10.63;3.90;;;15.90;86.60;;;;;;5053875;28;20641;-48
2021/06/13 06:23:23;;;;;;;9.00;3.33;;;16.10;86.70;;;;;;5053917;28;20435;-49
2021/06/13 06:25:50;;;;;;;10.57;3.80;;;15.90;85.90;;;;;;5053607;28;20453;-49
2021/06/13 06:28:17;;;;;;;8.23;3.20;;;15.80;85.50;;;;;;5053374;28;20482;-49
2021/06/13 06:30:44;;;;;;;11.97;3.30;;;15.70;85.10;;;;;;5053762;28;20431;-49
2021/06/13 06:33:12;;;;;;;10.63;4.17;;;15.70;85.00;;;;;;5053506;28;20447;-48
2021/06/13 06:35:38;;;;;;;9.47;3.33;;;15.90;85.40;;;;;;5053281;28;20550;-48
2021/06/13 06:38:05;;;;;;;5.20;3.20;;;15.80;85.00;;;;;;5053215;28;20518;-50
2021/06/13 06:40:32;;;;;;;6.53;3.10;;;16.00;84.70;;;;;;5053425;28;20492;-50
2021/06/13 06:42:59;;;;;;;9.80;3.60;;;16.00;84.20;;;;;;5053305;28;20785;-50
2021/06/13 06:45:25;;;;;;;8.47;3.70;;;15.80;83.70;;;;;;5053086;28;20818;-50
2021/06/13 06:47:52;;;;;;;10.33;3.83;;;16.10;84.00;;;;;;5053440;28;20445;-49
2021/06/13 06:50:21;;;;;;;7.70;3.50;;;16.00;83.60;;;;;;5053227;28;20752;-48
2021/06/13 06:52:47;;;;;;;12.80;3.43;;;16.10;83.60;;;;;;5053091;28;20434;-49
2021/06/13 06:55:15;;;;;;;8.70;3.37;;;16.30;83.60;;;;;;5052879;28;20468;-48
2021/06/13 06:57:45;;;;;;;9.80;3.57;;;16.60;83.30;;;;;;5052987;28;20449;-50
2021/06/13 07:00:13;;;;;;;11.43;3.27;;;16.50;82.80;;;;;;5052332;28;20423;-48
2021/06/13 07:02:40;;;;;;;10.47;3.33;;;16.40;82.50;;;;;;5052931;28;20453;-49
2021/06/13 07:05:07;;;;;;;7.30;2.90;;;16.20;82.20;;;;;;5052984;28;20821;-49
2021/06/13 07:07:35;;;;;;;10.40;3.13;;;16.70;82.70;;;;;;5053057;28;20438;-48
2021/06/13 07:10:03;;;;;;;10.17;4.60;;;16.80;82.30;;;;;;5052547;28;20478;-49
2021/06/13 07:12:30;;;;;;;9.27;2.93;;;16.80;81.80;;;;;;5052693;28;20435;-49
2021/06/13 07:14:57;;;;;;;12.70;3.43;;;17.00;81.10;;;;;;5053358;28;20463;-49
2021/06/13 07:17:23;;;;;;;8.77;3.50;;;16.70;80.20;;;;;;5052631;28;20434;-48
2021/06/13 07:19:50;;;;;;;6.23;3.13;;;17.10;80.40;;;;;;5052950;28;20794;-50
2021/06/13 07:22:17;;;;;;;9.97;3.10;;;17.00;79.40;;;;;;5052073;28;20827;-49
2021/06/13 07:24:45;;;;;;;16.23;4.20;;;17.30;79.10;;;;;;5051069;28;20474;-48
2021/06/13 07:27:12;;;;;;;6.43;3.10;;;17.40;79.60;;;;;;5051921;28;20430;-49
2021/06/13 07:29:39;;;;;;;10.83;3.50;;;17.20;78.20;;;;;;5051914;28;20853;-49
2021/06/13 07:32:06;;;;;;;8.27;3.13;;;17.50;77.70;;;;;;5052335;28;20439;-48
2021/06/13 07:34:33;;;;;;;9.00;3.93;;;17.80;77.70;;;;;;5052468;28;20880;-49
2021/06/13 07:37:03;;;;;;;6.87;3.33;;;17.90;77.30;;;;;;5052594;28;20439;-49
2021/06/13 07:39:31;;;;;;;6.37;2.80;;;18.00;76.30;;;;;;5052194;28;20430;-48
2021/06/13 07:41:59;;;;;;;13.33;3.07;;;18.00;76.90;;;;;;5052417;28;20915;-49
2021/06/13 07:44:26;;;;;;;9.60;3.90;;;18.00;75.90;;;;;;5053124;28;20452;-49
2021/06/13 07:46:54;;;;;;;4.73;2.63;;;18.20;76.20;;;;;;5052244;28;20431;-49
2021/06/13 07:49:20;;;;;;;7.00;2.87;;;18.10;74.90;;;;;;5051858;28;20790;-50
2021/06/13 07:51:47;;;;;;;10.07;3.70;;;18.10;73.90;;;;;;5052208;28;20871;-49
2021/06/13 07:54:14;;;;;;;11.87;3.30;;;18.00;74.30;;;;;;5051935;28;20524;-49
2021/06/13 07:56:41;;;;;;;7.07;3.07;;;18.00;74.60;;;;;;5051861;28;20940;-49
2021/06/13 07:59:09;;;;;;;5.20;2.27;;;18.10;74.60;;;;;;5051886;28;20422;-50
2021/06/13 08:01:35;;;;;;;5.73;2.40;;;18.20;74.20;;;;;;5052760;28;20432;-49
2021/06/13 08:04:02;;;;;;;9.90;3.27;;;18.10;73.70;;;;;;5051249;28;20776;-48
2021/06/13 08:06:29;;;;;;;10.63;2.77;;;17.80;73.10;;;;;;5051762;28;20958;-49
2021/06/13 08:08:55;;;;;;;5.03;2.73;;;18.10;73.60;;;;;;5051240;28;20587;-49
2021/06/13 08:11:22;;;;;;;5.43;3.03;;;17.90;73.20;;;;;;5051662;28;20435;-49
2021/06/13 08:13:49;;;;;;;9.57;3.10;;;18.10;73.40;;;;;;5052577;28;20439;-49
2021/06/13 08:16:16;;;;;;;5.03;2.50;;;18.20;73.20;;;;;;5051922;28;20455;-49
2021/06/13 08:18:43;;;;;;;10.23;2.80;;;18.00;73.00;;;;;;5051182;28;20432;-49
2021/06/13 08:21:10;;;;;;;7.27;3.17;;;18.60;74.00;;;;;;5051583;28;20438;-49
2021/06/13 08:23:36;;;;;;;7.40;3.50;;;18.30;72.00;;;;;;5051479;28;20464;-49
2021/06/13 08:26:03;;;;;;;7.17;2.70;;;18.30;72.40;;;;;;5051414;28;20457;-49
2021/06/13 08:28:30;;;;;;;5.80;2.80;;;18.50;72.60;;;;;;5050684;28;20448;-50
2021/06/13 08:30:57;;;;;;;5.27;2.77;;;18.40;71.80;;;;;;5051377;28;20431;-51
2021/06/13 08:33:26;;;;;;;9.13;3.17;;;18.70;71.80;;;;;;5050461;28;20441;-49
2021/06/13 08:35:53;;;;;;;9.80;3.37;;;18.80;71.40;;;;;;5051132;28;20835;-50
2021/06/13 08:38:21;;;;;;;8.03;2.70;;;18.70;71.10;;;;;;5051840;28;20447;-49
2021/06/13 08:40:48;;;;;;;8.70;2.67;;;19.00;71.30;;;;;;5051188;28;20447;-49
2021/06/13 08:43:15;;;;;;;11.17;3.53;;;19.00;71.20;;;;;;5051051;28;20487;-50
2021/06/13 08:45:42;;;;;;;7.80;2.67;;;18.90;70.90;;;;;;5050776;28;20984;-49
2021/06/13 08:48:10;;;;;;;6.90;3.20;;;19.00;70.90;;;;;;5050637;28;20437;-49
2021/06/13 08:50:38;;;;;;;11.00;3.43;;;19.00;71.00;;;;;;5051291;28;20487;-50
2021/06/13 08:53:07;;;;;;;8.87;2.70;;;18.90;71.20;;;;;;5051510;28;20437;-49
2021/06/13 08:55:34;;;;;;;5.10;3.20;;;18.90;71.50;;;;;;5051104;28;20472;-48
2021/06/13 08:58:01;;;;;;;6.83;2.97;;;18.70;71.40;;;;;;5050971;28;20506;-49
2021/06/13 09:00:30;;;;;;;7.33;3.20;;;18.80;72.10;;;;;;5049712;28;20522;-49
2021/06/13 09:02:58;;;;;;;8.73;2.57;;;18.70;72.20;;;;;;5051362;28;20948;-49
2021/06/13 09:05:26;;;;;;;7.20;3.30;;;18.30;72.10;;;;;;5051161;28;20833;-49
2021/06/13 09:07:56;;;;;;;8.80;3.07;;;18.20;72.80;;;;;;5051064;28;20540;-49
2021/06/13 09:10:27;;;;;;;11.37;3.50;;;18.30;73.40;;;;;;5050406;28;20976;-49
2021/06/13 09:13:09;;;;;;;12.43;3.70;;;18.20;73.50;;;;;;5050950;28;20439;-48
2021/06/13 09:15:37;;;;;;;8.10;3.13;;;18.10;73.70;;;;;;5050901;28;20472;-49
2021/06/13 09:18:04;;;;;;;9.10;3.30;;;18.10;74.20;;;;;;5051491;28;20431;-48
2021/06/13 09:20:31;;;;;;;8.40;3.90;;;18.00;74.70;;;;;;5051681;28;20441;-48
2021/06/13 09:23:12;;;;;;;7.97;3.10;;;18.00;75.40;;;;;;5051825;28;20429;-49
2021/06/13 09:25:41;;;;;;;7.60;3.10;;;18.20;75.40;;;;;;5051519;28;20487;-49
2021/06/13 09:28:11;;;;;;;10.13;4.73;;;18.30;75.50;;;;;;5050349;28;20428;-50
2021/06/13 09:30:39;;;;;;;10.67;4.10;;;18.00;75.20;;;;;;5050691;28;20520;-50
2021/06/13 09:33:09;;;;;;;9.47;4.40;;;18.20;75.30;;;;;;5051396;28;20767;-50
2021/06/13 09:35:37;;;;;;;9.17;3.70;;;18.30;77.10;;;;;;5051194;28;20557;-50
2021/06/13 09:38:18;;;;;;;7.70;4.40;;;18.30;79.30;;;;;;5050420;28;20424;-49
2021/06/13 09:40:48;;;;;;;10.60;4.27;;;17.70;81.10;;;;;;5050617;28;20432;-48
2021/06/13 09:43:18;;;;;;;10.07;3.87;;;17.60;82.50;;;;;;5051074;28;20515;-49
2021/06/13 09:45:48;;;;;;;10.97;6.50;;;17.20;83.10;;;;;;5054486;28;20554;-50
2021/06/13 09:48:15;;;;;;;11.10;3.77;;;17.20;84.10;;;;;;5054119;28;20444;-49
2021/06/13 09:50:44;;;;;;;9.80;4.43;;;17.00;86.50;;;;;;5053117;28;20478;-49
2021/06/13 09:53:30;;;;;;;23.97;5.63;;;17.00;86.50;;;;;;5054370;28;20533;-50
2021/06/13 09:56:10;;;;;;;10.53;4.00;;;17.20;87.50;;;;;;5053789;28;20470;-50
2021/06/13 09:58:49;;;;;;;5.80;3.20;;;17.20;86.70;;;;;;5054158;28;20822;-49
2021/06/13 10:01:16;;;;;;;14.30;3.87;;;17.10;85.70;;;;;;5054402;28;20466;-50
2021/06/13 10:03:46;;;;;;;7.03;3.20;;;17.40;85.40;;;;;;5054635;28;20435;-49
2021/06/13 10:06:14;;;;;;;8.20;3.63;;;17.60;84.70;;;;;;5054289;28;21040;-49
2021/06/13 10:08:42;;;;;;;8.97;3.70;;;17.80;84.00;;;;;;5052554;28;20867;-51
2021/06/13 10:11:10;;;;;;;9.27;4.00;;;17.90;83.10;;;;;;5055131;28;20570;-53
2021/06/13 10:13:49;;;;;;;7.10;3.53;;;18.00;82.50;;;;;;5052389;28;20455;-51
2021/06/13 10:16:38;;;;;;;6.73;4.10;;;18.20;81.50;;;;;;5053848;28;20467;-49
2021/06/13 10:19:12;;;;;;;10.63;4.80;;;18.40;80.10;;;;;;5053355;28;20502;-49
2021/06/13 10:21:41;;;;;;;7.00;3.60;;;18.30;79.80;;;;;;5053715;28;20945;-50
2021/06/13 10:24:12;;;;;;;6.97;3.20;;;18.20;79.50;;;;;;5052131;28;20460;-50
2021/06/13 10:26:41;;;;;;;6.03;2.83;;;18.20;78.70;;;;;;5054364;28;20423;-49
2021/06/13 10:29:09;;;;;;;9.53;3.33;;;18.20;78.70;;;;;;5053586;28;20528;-49
2021/06/13 10:31:37;;;;;;;10.50;3.93;;;18.20;78.50;;;;;;5053688;28;20457;-50
2021/06/13 10:34:04;;;;;;;7.63;4.10;;;18.30;78.10;;;;;;5054406;28;20548;-50
2021/06/13 10:36:36;;;;;;;9.97;3.30;;;18.20;76.90;;;;;;5054612;28;20790;-50
2021/06/13 10:39:05;;;;;;;6.57;3.40;;;18.10;75.80;;;;;;5053129;28;20445;-50
2021/06/13 10:41:33;;;;;;;7.77;3.47;;;18.20;75.40;;;;;;5053419;28;20505;-49
2021/06/13 10:44:01;;;;;;;6.50;4.33;;;18.10;74.60;;;;;;5052373;28;21009;-49
2021/06/13 10:46:31;;;;;;;5.87;3.30;;;18.50;75.00;;;;;;5053465;28;20445;-49
2021/06/13 10:48:59;;;;;;;8.80;3.90;;;18.40;74.60;;;;;;5052908;28;20482;-51
2021/06/13 10:51:31;;;;;;;8.73;3.33;;;18.40;73.40;;;;;;5053075;28;20507;-48
2021/06/13 10:57:32;;;;;;;5.70;3.10;;;18.30;72.00;;;;;;5010452;28;20874;-51
2021/06/13 11:00:00;;;;;;;7.00;3.57;;;18.40;72.10;;;;;;5011952;28;20507;-51
2021/06/13 11:02:28;;;;;;;5.77;3.57;;;18.50;72.40;;;;;;5013171;28;20795;-51
2021/06/13 11:04:57;;;;;;;10.40;4.70;;;18.50;71.90;;;;;;5013138;28;21135;-52
2021/06/13 11:07:55;;;;;;;5.03;3.07;;;18.30;71.50;;;;;;5012972;28;20444;-52
2021/06/13 11:10:27;;;;;;;6.70;3.97;;;18.60;71.60;;;;;;5011710;28;20519;-52
2021/06/13 11:13:02;;;;;;;8.33;3.47;;;18.00;70.60;;;;;;5012621;28;20525;-52
2021/06/13 11:16:03;;;;;;;6.40;3.33;;;18.50;71.00;;;;;;5011373;28;20477;-52
2021/06/13 11:18:31;;;;;;;10.40;4.60;;;18.20;71.50;;;;;;4951342;28;20899;-52
2021/06/13 11:21:06;;;;;;;4.90;3.87;;;17.70;71.70;;;;;;4995107;28;20919;-52
2021/06/13 11:23:57;;;;;;;10.07;4.50;;;18.20;72.00;;;;;;5012200;28;20448;-51
2021/06/13 11:26:45;;;;;;;7.53;4.17;;;18.60;72.30;;;;;;5011814;28;20556;-51
2021/06/13 11:29:14;;;;;;;8.10;5.73;;;18.40;71.30;;;;;;5012442;28;20438;-52
2021/06/13 11:31:51;;;;;;;7.43;4.87;;;18.70;71.40;;;;;;5012103;28;20543;-52
2021/06/13 11:34:18;;;;;;;11.63;5.63;;;18.80;71.30;;;;;;5011882;28;20438;-52
2021/06/13 11:36:46;;;;;;;12.17;4.87;;;19.10;70.50;;;;;;5012155;28;20576;-52
2021/06/13 11:39:24;;;;;;;6.90;4.23;;;19.20;69.90;;;;;;5011675;28;20475;-52
2021/06/13 11:41:54;;;;;;;8.90;4.47;;;19.50;69.30;;;;;;5012032;28;20445;-52
2021/06/13 11:44:51;;;;;;;10.50;4.03;;;19.30;68.60;;;;;;5010754;28;20546;-52
2021/06/13 11:47:36;;;;;;;9.33;3.80;;;19.40;67.80;;;;;;5011597;28;20436;-52
2021/06/13 11:50:09;;;;;;;7.60;3.43;;;19.50;67.60;;;;;;5011464;28;21016;-49
2021/06/13 11:53:00;;;;;;;7.00;3.70;;;19.60;67.00;;;;;;5011838;28;20530;-52
2021/06/13 11:56:01;;;;;;;9.30;4.80;;;19.40;66.70;;;;;;5011721;28;20602;-51
2021/06/13 11:58:28;;;;;;;8.30;4.80;;;19.40;67.10;;;;;;4950270;29;20458;-52
2021/06/13 12:00:58;;;;;;;10.43;5.03;;;19.50;67.60;;;;;;4998757;28;20500;-51
2021/06/13 12:03:26;;;;;;;12.77;4.40;;;19.70;67.50;;;;;;5011654;28;20519;-51
2021/06/13 12:06:16;;;;;;;6.67;4.47;;;19.60;67.70;;;;;;5011724;28;20473;-51
2021/06/13 12:08:45;;;;;;;12.80;4.37;;;19.80;67.30;;;;;;5011568;28;20513;-51
2021/06/13 12:11:31;;;;;;;13.23;4.67;;;19.50;66.90;;;;;;5011626;28;20497;-51
2021/06/13 12:13:58;;;;;;;6.33;3.80;;;19.90;67.40;;;;;;5011904;28;20534;-51
2021/06/13 12:16:27;;;;;;;9.10;4.10;;;19.70;66.80;;;;;;5011667;28;20456;-51
2021/06/13 12:19:02;;;;;;;10.30;4.20;;;19.80;65.90;;;;;;5011340;28;20432;-51
2021/06/13 12:21:29;;;;;;;7.30;4.30;;;19.70;65.10;;;;;;5011918;28;20448;-51
2021/06/13 12:24:04;;;;;;;7.40;4.80;;;19.70;65.20;;;;;;5011259;28;20956;-51
2021/06/13 12:29:23;;;;;;;7.00;4.43;;;19.50;65.00;;;;;;5011377;28;20905;-51
2021/06/13 12:31:51;;;;;;;12.20;5.20;;;19.40;64.80;;;;;;5009777;28;21097;-51
2021/06/13 12:34:20;;;;;;;7.77;4.60;;;19.80;65.20;;;;;;5011227;28;20910;-51
2021/06/13 12:36:52;;;;;;;16.33;4.90;;;20.00;65.20;;;;;;5011409;28;20484;-51
2021/06/13 12:39:29;;;;;;;8.77;4.93;;;20.10;64.20;;;;;;5010559;28;20458;-51
2021/06/13 12:42:08;;;;;;;9.30;5.03;;;20.10;62.90;;;;;;5025661;28;20474;-51
2021/06/13 12:44:38;;;;;;;7.17;4.13;;;19.90;61.80;;;;;;5011023;28;20486;-51
2021/06/13 12:47:08;;;;;;;7.50;3.90;;;20.00;61.40;;;;;;5010854;28;20441;-52
2021/06/13 12:49:40;;;;;;;6.03;4.50;;;20.10;60.70;;;;;;5010789;28;20424;-51
2021/06/13 12:52:12;;;;;;;7.33;4.77;;;20.00;60.80;;;;;;5010923;28;20476;-51
2021/06/13 12:54:39;;;;;;;5.90;4.70;;;20.00;61.60;;;;;;5011029;28;20527;-51
2021/06/13 12:57:06;;;;;;;11.33;5.10;;;20.20;61.70;;;;;;5009442;28;20464;-51
2021/06/13 12:59:35;;;;;;;5.00;3.70;;;19.90;60.90;;;;;;5010181;28;20448;-51
2021/06/13 13:02:02;;;;;;;6.03;4.17;;;19.90;61.00;;;;;;5011149;28;20509;-51
2021/06/13 13:04:42;;;;;;;4.73;3.90;;;19.80;60.50;;;;;;5010920;28;20436;-52